sensor_id;sensor_type;location;lat;lon;timestamp;P1;durP1;ratioP1;P2;durP2;ratioP2
74656;SDS011;63185;45.642;13.764;2023-04-08T00:00:18;30.02;;;16.40;;
74656;SDS011;63185;45.642;13.764;2023-04-08T00:02:44;30.35;;;15.55;;
74656;SDS011;63185;45.642;13.764;2023-04-08T00:05:10;31.50;;;14.85;;
74656;SDS011;63185;45.642;13.764;2023-04-08T00:07:35;34.88;;;15.27;;
74656;SDS011;63185;45.642;13.764;2023-04-08T00:10:01;33.05;;;15.32;;
74656;SDS011;63185;45.642;13.764;2023-04-08T00:12:27;27.25;;;14.23;;
74656;SDS011;63185;45.642;13.764;2023-04-08T00:14:53;28.15;;;14.95;;
74656;SDS011;63185;45.642;13.764;2023-04-08T00:17:19;29.92;;;14.10;;
74656;SDS011;63185;45.642;13.764;2023-04-08T00:19:45;27.90;;;14.05;;
74656;SDS011;63185;45.642;13.764;2023-04-08T00:22:10;29.73;;;14.43;;
74656;SDS011;63185;45.642;13.764;2023-04-08T00:24:36;27.95;;;15.30;;
74656;SDS011;63185;45.642;13.764;2023-04-08T00:27:02;28.35;;;14.95;;
74656;SDS011;63185;45.642;13.764;2023-04-08T00:29:28;31.45;;;15.95;;
74656;SDS011;63185;45.642;13.764;2023-04-08T00:31:54;29.85;;;14.98;;
74656;SDS011;63185;45.642;13.764;2023-04-08T00:34:19;30.30;;;15.32;;
74656;SDS011;63185;45.642;13.764;2023-04-08T00:36:45;32.78;;;15.75;;
74656;SDS011;63185;45.642;13.764;2023-04-08T00:39:12;29.10;;;15.18;;
74656;SDS011;63185;45.642;13.764;2023-04-08T00:41:38;26.75;;;14.32;;
74656;SDS011;63185;45.642;13.764;2023-04-08T00:44:04;32.35;;;14.82;;
74656;SDS011;63185;45.642;13.764;2023-04-08T00:46:30;26.67;;;15.07;;
74656;SDS011;63185;45.642;13.764;2023-04-08T00:49:00;27.25;;;14.02;;
74656;SDS011;63185;45.642;13.764;2023-04-08T00:51:29;32.03;;;14.43;;
74656;SDS011;63185;45.642;13.764;2023-04-08T00:53:55;25.50;;;13.52;;
74656;SDS011;63185;45.642;13.764;2023-04-08T00:56:21;29.75;;;14.65;;
74656;SDS011;63185;45.642;13.764;2023-04-08T00:58:48;27.38;;;13.73;;
74656;SDS011;63185;45.642;13.764;2023-04-08T01:01:21;26.85;;;13.70;;
74656;SDS011;63185;45.642;13.764;2023-04-08T01:06:50;26.58;;;13.35;;
74656;SDS011;63185;45.642;13.764;2023-04-08T01:09:32;27.65;;;12.60;;
74656;SDS011;63185;45.642;13.764;2023-04-08T01:11:59;26.33;;;13.18;;
74656;SDS011;63185;45.642;13.764;2023-04-08T01:14:30;26.40;;;12.05;;
74656;SDS011;63185;45.642;13.764;2023-04-08T01:17:02;24.95;;;12.55;;
74656;SDS011;63185;45.642;13.764;2023-04-08T01:19:30;24.95;;;12.55;;
74656;SDS011;63185;45.642;13.764;2023-04-08T01:22:10;25.43;;;12.23;;
74656;SDS011;63185;45.642;13.764;2023-04-08T01:24:38;22.38;;;12.23;;
74656;SDS011;63185;45.642;13.764;2023-04-08T01:29:32;24.77;;;12.15;;
74656;SDS011;63185;45.642;13.764;2023-04-08T01:31:59;24.25;;;12.88;;
74656;SDS011;63185;45.642;13.764;2023-04-08T01:34:26;23.90;;;12.70;;
74656;SDS011;63185;45.642;13.764;2023-04-08T01:36:53;25.25;;;13.00;;
74656;SDS011;63185;45.642;13.764;2023-04-08T01:39:20;25.52;;;12.43;;
74656;SDS011;63185;45.642;13.764;2023-04-08T01:41:46;25.95;;;12.95;;
74656;SDS011;63185;45.642;13.764;2023-04-08T01:44:13;24.92;;;12.75;;
74656;SDS011;63185;45.642;13.764;2023-04-08T01:46:40;28.23;;;13.38;;
74656;SDS011;63185;45.642;13.764;2023-04-08T01:49:07;24.52;;;12.63;;
74656;SDS011;63185;45.642;13.764;2023-04-08T01:51:33;23.80;;;12.25;;
74656;SDS011;63185;45.642;13.764;2023-04-08T01:54:02;24.75;;;12.13;;
74656;SDS011;63185;45.642;13.764;2023-04-08T01:56:28;22.73;;;12.27;;
74656;SDS011;63185;45.642;13.764;2023-04-08T01:58:54;26.65;;;12.75;;
74656;SDS011;63185;45.642;13.764;2023-04-08T02:01:24;27.10;;;12.90;;
74656;SDS011;63185;45.642;13.764;2023-04-08T02:03:53;16.35;;;8.55;;
74656;SDS011;63185;45.642;13.764;2023-04-08T02:06:21;22.70;;;12.23;;
74656;SDS011;63185;45.642;13.764;2023-04-08T02:08:47;24.60;;;12.55;;
74656;SDS011;63185;45.642;13.764;2023-04-08T02:11:13;27.42;;;12.88;;
74656;SDS011;63185;45.642;13.764;2023-04-08T02:13:39;22.02;;;11.95;;
74656;SDS011;63185;45.642;13.764;2023-04-08T02:18:57;23.50;;;12.38;;
74656;SDS011;63185;45.642;13.764;2023-04-08T02:21:28;27.48;;;12.57;;
74656;SDS011;63185;45.642;13.764;2023-04-08T02:24:02;22.83;;;11.70;;
74656;SDS011;63185;45.642;13.764;2023-04-08T02:26:32;24.38;;;11.30;;
74656;SDS011;63185;45.642;13.764;2023-04-08T02:29:00;23.58;;;11.40;;
74656;SDS011;63185;45.642;13.764;2023-04-08T02:31:28;22.23;;;11.23;;
74656;SDS011;63185;45.642;13.764;2023-04-08T02:33:54;23.95;;;11.45;;
74656;SDS011;63185;45.642;13.764;2023-04-08T02:36:21;22.15;;;11.20;;
74656;SDS011;63185;45.642;13.764;2023-04-08T02:38:47;27.77;;;11.23;;
74656;SDS011;63185;45.642;13.764;2023-04-08T02:41:14;22.88;;;10.98;;
74656;SDS011;63185;45.642;13.764;2023-04-08T02:43:40;18.90;;;10.30;;
74656;SDS011;63185;45.642;13.764;2023-04-08T02:46:06;20.20;;;10.25;;
74656;SDS011;63185;45.642;13.764;2023-04-08T02:48:33;21.75;;;10.52;;
74656;SDS011;63185;45.642;13.764;2023-04-08T02:50:59;25.67;;;11.45;;
74656;SDS011;63185;45.642;13.764;2023-04-08T02:53:24;17.17;;;9.25;;
74656;SDS011;63185;45.642;13.764;2023-04-08T02:55:50;19.42;;;10.50;;
74656;SDS011;63185;45.642;13.764;2023-04-08T02:58:16;18.98;;;10.13;;
74656;SDS011;63185;45.642;13.764;2023-04-08T03:00:42;19.35;;;9.63;;
74656;SDS011;63185;45.642;13.764;2023-04-08T03:03:07;18.77;;;8.98;;
74656;SDS011;63185;45.642;13.764;2023-04-08T03:05:33;16.38;;;8.77;;
74656;SDS011;63185;45.642;13.764;2023-04-08T03:07:59;17.55;;;8.38;;
74656;SDS011;63185;45.642;13.764;2023-04-08T03:10:25;16.50;;;8.48;;
74656;SDS011;63185;45.642;13.764;2023-04-08T03:12:51;15.18;;;8.02;;
74656;SDS011;63185;45.642;13.764;2023-04-08T03:15:16;16.15;;;7.63;;
74656;SDS011;63185;45.642;13.764;2023-04-08T03:17:42;19.40;;;8.25;;
74656;SDS011;63185;45.642;13.764;2023-04-08T03:20:08;14.27;;;7.32;;
74656;SDS011;63185;45.642;13.764;2023-04-08T03:22:34;14.80;;;7.20;;
74656;SDS011;63185;45.642;13.764;2023-04-08T03:25:00;13.95;;;6.95;;
74656;SDS011;63185;45.642;13.764;2023-04-08T03:27:26;14.70;;;7.30;;
74656;SDS011;63185;45.642;13.764;2023-04-08T03:29:51;15.20;;;7.00;;
74656;SDS011;63185;45.642;13.764;2023-04-08T03:32:17;13.68;;;7.45;;
74656;SDS011;63185;45.642;13.764;2023-04-08T03:34:44;15.90;;;7.47;;
74656;SDS011;63185;45.642;13.764;2023-04-08T03:37:10;15.18;;;7.95;;
74656;SDS011;63185;45.642;13.764;2023-04-08T03:39:36;16.48;;;8.00;;
74656;SDS011;63185;45.642;13.764;2023-04-08T03:42:02;14.82;;;7.50;;
74656;SDS011;63185;45.642;13.764;2023-04-08T03:44:28;14.45;;;7.85;;
74656;SDS011;63185;45.642;13.764;2023-04-08T03:46:53;18.05;;;7.80;;
74656;SDS011;63185;45.642;13.764;2023-04-08T03:49:19;15.57;;;7.50;;
74656;SDS011;63185;45.642;13.764;2023-04-08T03:51:45;16.05;;;7.63;;
74656;SDS011;63185;45.642;13.764;2023-04-08T03:54:11;17.63;;;7.82;;
74656;SDS011;63185;45.642;13.764;2023-04-08T03:56:36;18.55;;;7.80;;
74656;SDS011;63185;45.642;13.764;2023-04-08T03:59:02;17.02;;;7.53;;
74656;SDS011;63185;45.642;13.764;2023-04-08T04:01:28;13.75;;;6.55;;
74656;SDS011;63185;45.642;13.764;2023-04-08T04:03:56;14.50;;;8.10;;
74656;SDS011;63185;45.642;13.764;2023-04-08T04:06:22;17.27;;;7.78;;
74656;SDS011;63185;45.642;13.764;2023-04-08T04:08:48;13.43;;;7.22;;
74656;SDS011;63185;45.642;13.764;2023-04-08T04:11:14;19.10;;;7.78;;
74656;SDS011;63185;45.642;13.764;2023-04-08T04:13:40;16.13;;;7.30;;
74656;SDS011;63185;45.642;13.764;2023-04-08T04:16:06;15.00;;;7.38;;
74656;SDS011;63185;45.642;13.764;2023-04-08T04:18:31;17.35;;;8.10;;
74656;SDS011;63185;45.642;13.764;2023-04-08T04:20:57;18.63;;;8.00;;
74656;SDS011;63185;45.642;13.764;2023-04-08T04:23:23;18.65;;;7.40;;
74656;SDS011;63185;45.642;13.764;2023-04-08T04:25:49;17.85;;;7.25;;
74656;SDS011;63185;45.642;13.764;2023-04-08T04:28:15;20.15;;;7.45;;
74656;SDS011;63185;45.642;13.764;2023-04-08T04:30:41;17.08;;;8.25;;
74656;SDS011;63185;45.642;13.764;2023-04-08T04:33:07;20.50;;;7.90;;
74656;SDS011;63185;45.642;13.764;2023-04-08T04:35:33;18.75;;;8.05;;
74656;SDS011;63185;45.642;13.764;2023-04-08T04:37:59;16.13;;;7.50;;
74656;SDS011;63185;45.642;13.764;2023-04-08T04:40:25;16.05;;;7.95;;
74656;SDS011;63185;45.642;13.764;2023-04-08T04:42:51;18.52;;;8.10;;
74656;SDS011;63185;45.642;13.764;2023-04-08T04:45:17;15.50;;;7.72;;
74656;SDS011;63185;45.642;13.764;2023-04-08T04:47:42;19.65;;;7.57;;
74656;SDS011;63185;45.642;13.764;2023-04-08T04:50:08;18.73;;;8.07;;
74656;SDS011;63185;45.642;13.764;2023-04-08T04:52:34;17.27;;;8.60;;
74656;SDS011;63185;45.642;13.764;2023-04-08T04:55:00;20.90;;;7.90;;
74656;SDS011;63185;45.642;13.764;2023-04-08T04:57:26;16.88;;;7.85;;
74656;SDS011;63185;45.642;13.764;2023-04-08T04:59:52;20.30;;;8.27;;
74656;SDS011;63185;45.642;13.764;2023-04-08T05:02:17;17.45;;;7.32;;
74656;SDS011;63185;45.642;13.764;2023-04-08T05:04:43;18.52;;;8.23;;
74656;SDS011;63185;45.642;13.764;2023-04-08T05:07:08;20.38;;;7.90;;
74656;SDS011;63185;45.642;13.764;2023-04-08T05:09:34;18.35;;;8.45;;
74656;SDS011;63185;45.642;13.764;2023-04-08T05:12:00;18.50;;;7.88;;
74656;SDS011;63185;45.642;13.764;2023-04-08T05:14:28;19.80;;;8.05;;
74656;SDS011;63185;45.642;13.764;2023-04-08T05:16:54;19.92;;;8.25;;
74656;SDS011;63185;45.642;13.764;2023-04-08T05:19:21;19.17;;;7.97;;
74656;SDS011;63185;45.642;13.764;2023-04-08T05:21:46;22.88;;;8.70;;
74656;SDS011;63185;45.642;13.764;2023-04-08T05:24:12;20.15;;;8.15;;
74656;SDS011;63185;45.642;13.764;2023-04-08T05:26:38;17.85;;;8.05;;
74656;SDS011;63185;45.642;13.764;2023-04-08T05:29:03;19.65;;;8.15;;
74656;SDS011;63185;45.642;13.764;2023-04-08T05:31:29;19.98;;;8.43;;
74656;SDS011;63185;45.642;13.764;2023-04-08T05:33:55;17.30;;;8.00;;
74656;SDS011;63185;45.642;13.764;2023-04-08T05:36:20;16.05;;;7.40;;
74656;SDS011;63185;45.642;13.764;2023-04-08T05:38:46;15.98;;;7.82;;
74656;SDS011;63185;45.642;13.764;2023-04-08T05:41:12;18.40;;;7.55;;
74656;SDS011;63185;45.642;13.764;2023-04-08T05:43:38;16.80;;;7.63;;
74656;SDS011;63185;45.642;13.764;2023-04-08T05:46:05;18.77;;;8.07;;
74656;SDS011;63185;45.642;13.764;2023-04-08T05:48:34;14.43;;;7.47;;
74656;SDS011;63185;45.642;13.764;2023-04-08T05:51:00;18.08;;;7.60;;
74656;SDS011;63185;45.642;13.764;2023-04-08T05:53:26;16.55;;;7.82;;
74656;SDS011;63185;45.642;13.764;2023-04-08T05:55:51;15.82;;;7.35;;
74656;SDS011;63185;45.642;13.764;2023-04-08T05:58:17;19.60;;;7.55;;
74656;SDS011;63185;45.642;13.764;2023-04-08T06:00:43;19.40;;;7.30;;
74656;SDS011;63185;45.642;13.764;2023-04-08T06:03:09;19.92;;;7.35;;
74656;SDS011;63185;45.642;13.764;2023-04-08T06:05:34;17.80;;;7.53;;
74656;SDS011;63185;45.642;13.764;2023-04-08T06:08:00;16.73;;;7.43;;
74656;SDS011;63185;45.642;13.764;2023-04-08T06:10:26;14.93;;;7.13;;
74656;SDS011;63185;45.642;13.764;2023-04-08T06:12:51;14.40;;;6.72;;
74656;SDS011;63185;45.642;13.764;2023-04-08T06:15:17;17.20;;;6.72;;
74656;SDS011;63185;45.642;13.764;2023-04-08T06:17:43;17.83;;;7.10;;
74656;SDS011;63185;45.642;13.764;2023-04-08T06:20:08;17.25;;;7.15;;
74656;SDS011;63185;45.642;13.764;2023-04-08T06:22:35;17.85;;;7.13;;
74656;SDS011;63185;45.642;13.764;2023-04-08T06:25:01;15.70;;;6.45;;
74656;SDS011;63185;45.642;13.764;2023-04-08T06:27:26;18.40;;;6.57;;
74656;SDS011;63185;45.642;13.764;2023-04-08T06:29:52;17.58;;;7.55;;
74656;SDS011;63185;45.642;13.764;2023-04-08T06:32:19;14.43;;;6.85;;
74656;SDS011;63185;45.642;13.764;2023-04-08T06:34:45;17.85;;;7.32;;
74656;SDS011;63185;45.642;13.764;2023-04-08T06:37:11;17.63;;;6.95;;
74656;SDS011;63185;45.642;13.764;2023-04-08T06:39:37;19.35;;;7.60;;
74656;SDS011;63185;45.642;13.764;2023-04-08T06:42:03;17.00;;;7.68;;
74656;SDS011;63185;45.642;13.764;2023-04-08T06:44:29;21.73;;;7.00;;
74656;SDS011;63185;45.642;13.764;2023-04-08T06:46:54;20.90;;;7.80;;
74656;SDS011;63185;45.642;13.764;2023-04-08T06:49:20;21.90;;;7.45;;
74656;SDS011;63185;45.642;13.764;2023-04-08T06:51:46;23.40;;;7.97;;
74656;SDS011;63185;45.642;13.764;2023-04-08T06:54:12;14.65;;;7.13;;
74656;SDS011;63185;45.642;13.764;2023-04-08T06:56:37;16.20;;;7.30;;
74656;SDS011;63185;45.642;13.764;2023-04-08T06:59:03;16.92;;;7.35;;
74656;SDS011;63185;45.642;13.764;2023-04-08T07:01:29;20.02;;;7.95;;
74656;SDS011;63185;45.642;13.764;2023-04-08T07:03:56;20.42;;;8.50;;
74656;SDS011;63185;45.642;13.764;2023-04-08T07:06:22;20.10;;;8.70;;
74656;SDS011;63185;45.642;13.764;2023-04-08T07:08:47;21.10;;;8.98;;
74656;SDS011;63185;45.642;13.764;2023-04-08T07:11:13;19.33;;;8.80;;
74656;SDS011;63185;45.642;13.764;2023-04-08T07:13:42;22.55;;;9.13;;
74656;SDS011;63185;45.642;13.764;2023-04-08T07:16:08;15.73;;;7.97;;
74656;SDS011;63185;45.642;13.764;2023-04-08T07:18:33;20.20;;;8.77;;
74656;SDS011;63185;45.642;13.764;2023-04-08T07:20:59;16.38;;;8.50;;
74656;SDS011;63185;45.642;13.764;2023-04-08T07:23:25;17.80;;;7.72;;
74656;SDS011;63185;45.642;13.764;2023-04-08T07:25:51;17.10;;;8.20;;
74656;SDS011;63185;45.642;13.764;2023-04-08T07:28:18;17.67;;;8.70;;
74656;SDS011;63185;45.642;13.764;2023-04-08T07:30:44;19.83;;;9.55;;
74656;SDS011;63185;45.642;13.764;2023-04-08T07:33:10;19.55;;;9.50;;
74656;SDS011;63185;45.642;13.764;2023-04-08T07:35:36;22.92;;;9.18;;
74656;SDS011;63185;45.642;13.764;2023-04-08T07:38:02;16.10;;;7.90;;
74656;SDS011;63185;45.642;13.764;2023-04-08T07:40:28;17.58;;;7.47;;
74656;SDS011;63185;45.642;13.764;2023-04-08T07:42:54;17.10;;;7.82;;
74656;SDS011;63185;45.642;13.764;2023-04-08T07:45:20;17.92;;;8.10;;
74656;SDS011;63185;45.642;13.764;2023-04-08T07:47:46;16.60;;;8.48;;
74656;SDS011;63185;45.642;13.764;2023-04-08T07:50:12;16.35;;;7.32;;
74656;SDS011;63185;45.642;13.764;2023-04-08T07:52:38;16.77;;;7.32;;
74656;SDS011;63185;45.642;13.764;2023-04-08T07:55:03;13.70;;;6.60;;
74656;SDS011;63185;45.642;13.764;2023-04-08T07:57:30;15.23;;;7.65;;
74656;SDS011;63185;45.642;13.764;2023-04-08T07:59:56;17.73;;;7.22;;
74656;SDS011;63185;45.642;13.764;2023-04-08T08:02:22;13.80;;;7.13;;
74656;SDS011;63185;45.642;13.764;2023-04-08T08:04:47;14.68;;;7.20;;
74656;SDS011;63185;45.642;13.764;2023-04-08T08:07:13;16.10;;;6.90;;
74656;SDS011;63185;45.642;13.764;2023-04-08T08:09:39;16.25;;;7.15;;
74656;SDS011;63185;45.642;13.764;2023-04-08T08:12:05;12.88;;;7.13;;
74656;SDS011;63185;45.642;13.764;2023-04-08T08:14:30;17.58;;;7.70;;
74656;SDS011;63185;45.642;13.764;2023-04-08T08:16:56;12.75;;;6.72;;
74656;SDS011;63185;45.642;13.764;2023-04-08T08:19:22;18.05;;;8.75;;
74656;SDS011;63185;45.642;13.764;2023-04-08T08:21:48;17.52;;;8.07;;
74656;SDS011;63185;45.642;13.764;2023-04-08T08:24:14;19.08;;;7.88;;
74656;SDS011;63185;45.642;13.764;2023-04-08T08:26:40;16.25;;;8.13;;
74656;SDS011;63185;45.642;13.764;2023-04-08T08:29:06;18.35;;;8.52;;
74656;SDS011;63185;45.642;13.764;2023-04-08T08:31:33;17.90;;;7.70;;
74656;SDS011;63185;45.642;13.764;2023-04-08T08:33:59;13.13;;;7.53;;
74656;SDS011;63185;45.642;13.764;2023-04-08T08:36:24;17.92;;;7.72;;
74656;SDS011;63185;45.642;13.764;2023-04-08T08:38:51;14.88;;;7.35;;
74656;SDS011;63185;45.642;13.764;2023-04-08T08:41:18;13.50;;;7.05;;
74656;SDS011;63185;45.642;13.764;2023-04-08T08:43:44;14.63;;;7.57;;
74656;SDS011;63185;45.642;13.764;2023-04-08T08:46:11;17.77;;;7.93;;
74656;SDS011;63185;45.642;13.764;2023-04-08T08:48:39;11.45;;;7.20;;
74656;SDS011;63185;45.642;13.764;2023-04-08T08:51:08;14.95;;;7.43;;
74656;SDS011;63185;45.642;13.764;2023-04-08T08:53:35;15.25;;;8.10;;
74656;SDS011;63185;45.642;13.764;2023-04-08T08:56:01;14.98;;;7.38;;
74656;SDS011;63185;45.642;13.764;2023-04-08T08:58:27;14.93;;;8.02;;
74656;SDS011;63185;45.642;13.764;2023-04-08T09:00:53;15.63;;;7.88;;
74656;SDS011;63185;45.642;13.764;2023-04-08T09:08:22;14.55;;;7.10;;
74656;SDS011;63185;45.642;13.764;2023-04-08T09:10:48;11.77;;;6.55;;
74656;SDS011;63185;45.642;13.764;2023-04-08T09:13:13;14.20;;;7.40;;
74656;SDS011;63185;45.642;13.764;2023-04-08T09:18:28;15.20;;;6.93;;
74656;SDS011;63185;45.642;13.764;2023-04-08T09:20:54;14.77;;;7.32;;
74656;SDS011;63185;45.642;13.764;2023-04-08T09:23:20;16.70;;;7.85;;
74656;SDS011;63185;45.642;13.764;2023-04-08T09:25:46;12.75;;;7.10;;
74656;SDS011;63185;45.642;13.764;2023-04-08T09:28:18;13.63;;;7.07;;
74656;SDS011;63185;45.642;13.764;2023-04-08T09:30:45;12.15;;;6.82;;
74656;SDS011;63185;45.642;13.764;2023-04-08T09:33:12;14.27;;;7.95;;
74656;SDS011;63185;45.642;13.764;2023-04-08T09:35:37;13.45;;;6.85;;
74656;SDS011;63185;45.642;13.764;2023-04-08T09:38:03;13.98;;;7.13;;
74656;SDS011;63185;45.642;13.764;2023-04-08T09:40:31;11.48;;;6.68;;
74656;SDS011;63185;45.642;13.764;2023-04-08T09:43:04;12.73;;;6.68;;
74656;SDS011;63185;45.642;13.764;2023-04-08T09:45:32;16.15;;;7.20;;
74656;SDS011;63185;45.642;13.764;2023-04-08T09:50:35;11.80;;;5.95;;
74656;SDS011;63185;45.642;13.764;2023-04-08T09:53:08;12.02;;;6.30;;
74656;SDS011;63185;45.642;13.764;2023-04-08T09:55:54;10.93;;;5.57;;
74656;SDS011;63185;45.642;13.764;2023-04-08T09:58:22;13.70;;;6.18;;
74656;SDS011;63185;45.642;13.764;2023-04-08T10:00:56;14.48;;;5.30;;
74656;SDS011;63185;45.642;13.764;2023-04-08T10:03:26;9.48;;;4.80;;
74656;SDS011;63185;45.642;13.764;2023-04-08T10:05:55;12.32;;;5.15;;
74656;SDS011;63185;45.642;13.764;2023-04-08T10:10:51;8.20;;;4.30;;
74656;SDS011;63185;45.642;13.764;2023-04-08T10:13:17;7.18;;;4.22;;
74656;SDS011;63185;45.642;13.764;2023-04-08T10:15:44;9.73;;;5.13;;
74656;SDS011;63185;45.642;13.764;2023-04-08T10:23:04;11.10;;;4.80;;
74656;SDS011;63185;45.642;13.764;2023-04-08T10:25:37;7.28;;;4.35;;
74656;SDS011;63185;45.642;13.764;2023-04-08T10:33:14;9.52;;;4.63;;
74656;SDS011;63185;45.642;13.764;2023-04-08T10:35:42;10.23;;;5.25;;
74656;SDS011;63185;45.642;13.764;2023-04-08T10:38:11;11.25;;;5.30;;
74656;SDS011;63185;45.642;13.764;2023-04-08T10:40:38;8.52;;;4.38;;
74656;SDS011;63185;45.642;13.764;2023-04-08T10:43:06;9.55;;;4.88;;
74656;SDS011;63185;45.642;13.764;2023-04-08T10:45:33;8.02;;;4.00;;
74656;SDS011;63185;45.642;13.764;2023-04-08T10:48:12;8.93;;;4.00;;
74656;SDS011;63185;45.642;13.764;2023-04-08T10:50:54;6.32;;;3.60;;
74656;SDS011;63185;45.642;13.764;2023-04-08T10:53:27;7.18;;;3.90;;
74656;SDS011;63185;45.642;13.764;2023-04-08T10:55:53;8.52;;;3.90;;
74656;SDS011;63185;45.642;13.764;2023-04-08T10:58:27;6.93;;;3.38;;
74656;SDS011;63185;45.642;13.764;2023-04-08T11:00:54;8.93;;;3.55;;
74656;SDS011;63185;45.642;13.764;2023-04-08T11:03:20;6.85;;;3.50;;
74656;SDS011;63185;45.642;13.764;2023-04-08T11:05:46;5.70;;;2.92;;
74656;SDS011;63185;45.642;13.764;2023-04-08T11:08:13;7.05;;;3.55;;
74656;SDS011;63185;45.642;13.764;2023-04-08T11:10:39;7.68;;;3.50;;
74656;SDS011;63185;45.642;13.764;2023-04-08T11:13:07;6.20;;;3.33;;
74656;SDS011;63185;45.642;13.764;2023-04-08T11:15:34;7.68;;;3.58;;
74656;SDS011;63185;45.642;13.764;2023-04-08T11:18:01;5.90;;;3.70;;
74656;SDS011;63185;45.642;13.764;2023-04-08T11:20:28;7.68;;;3.28;;
74656;SDS011;63185;45.642;13.764;2023-04-08T11:22:55;7.40;;;3.63;;
74656;SDS011;63185;45.642;13.764;2023-04-08T11:25:21;6.95;;;2.92;;
74656;SDS011;63185;45.642;13.764;2023-04-08T11:27:48;7.05;;;2.90;;
74656;SDS011;63185;45.642;13.764;2023-04-08T11:30:14;6.88;;;2.90;;
74656;SDS011;63185;45.642;13.764;2023-04-08T11:32:40;6.53;;;2.55;;
74656;SDS011;63185;45.642;13.764;2023-04-08T11:35:06;6.43;;;2.60;;
74656;SDS011;63185;45.642;13.764;2023-04-08T11:37:38;4.25;;;2.42;;
74656;SDS011;63185;45.642;13.764;2023-04-08T11:40:11;4.50;;;2.25;;
74656;SDS011;63185;45.642;13.764;2023-04-08T11:42:37;4.43;;;2.05;;
74656;SDS011;63185;45.642;13.764;2023-04-08T11:45:14;5.97;;;2.10;;
74656;SDS011;63185;45.642;13.764;2023-04-08T11:47:42;4.88;;;2.25;;
74656;SDS011;63185;45.642;13.764;2023-04-08T11:50:08;5.22;;;2.40;;
74656;SDS011;63185;45.642;13.764;2023-04-08T11:52:41;4.68;;;2.25;;
74656;SDS011;63185;45.642;13.764;2023-04-08T11:55:08;4.72;;;2.15;;
74656;SDS011;63185;45.642;13.764;2023-04-08T11:57:35;4.40;;;2.30;;
74656;SDS011;63185;45.642;13.764;2023-04-08T12:00:02;5.45;;;2.50;;
74656;SDS011;63185;45.642;13.764;2023-04-08T12:02:30;5.20;;;2.40;;
74656;SDS011;63185;45.642;13.764;2023-04-08T12:04:56;5.18;;;2.38;;
74656;SDS011;63185;45.642;13.764;2023-04-08T12:07:21;5.90;;;2.63;;
74656;SDS011;63185;45.642;13.764;2023-04-08T12:09:47;5.90;;;2.65;;
74656;SDS011;63185;45.642;13.764;2023-04-08T12:12:13;5.63;;;2.90;;
74656;SDS011;63185;45.642;13.764;2023-04-08T12:14:39;7.97;;;2.60;;
74656;SDS011;63185;45.642;13.764;2023-04-08T12:17:04;5.97;;;2.50;;
74656;SDS011;63185;45.642;13.764;2023-04-08T12:19:30;7.72;;;2.60;;
74656;SDS011;63185;45.642;13.764;2023-04-08T12:21:56;5.30;;;2.20;;
74656;SDS011;63185;45.642;13.764;2023-04-08T12:24:22;5.90;;;2.50;;
74656;SDS011;63185;45.642;13.764;2023-04-08T12:26:48;5.93;;;2.22;;
74656;SDS011;63185;45.642;13.764;2023-04-08T12:29:13;7.35;;;2.60;;
74656;SDS011;63185;45.642;13.764;2023-04-08T12:31:39;5.75;;;2.60;;
74656;SDS011;63185;45.642;13.764;2023-04-08T12:34:05;8.10;;;2.85;;
74656;SDS011;63185;45.642;13.764;2023-04-08T12:36:31;3.97;;;2.03;;
74656;SDS011;63185;45.642;13.764;2023-04-08T12:38:57;4.68;;;2.60;;
74656;SDS011;63185;45.642;13.764;2023-04-08T12:41:23;4.97;;;2.10;;
74656;SDS011;63185;45.642;13.764;2023-04-08T12:43:48;4.70;;;2.38;;
74656;SDS011;63185;45.642;13.764;2023-04-08T12:46:14;7.93;;;2.33;;
74656;SDS011;63185;45.642;13.764;2023-04-08T12:48:43;7.38;;;2.20;;
74656;SDS011;63185;45.642;13.764;2023-04-08T12:51:09;5.65;;;2.20;;
74656;SDS011;63185;45.642;13.764;2023-04-08T12:53:36;5.38;;;1.95;;
74656;SDS011;63185;45.642;13.764;2023-04-08T12:56:01;5.63;;;2.10;;
74656;SDS011;63185;45.642;13.764;2023-04-08T12:58:27;8.43;;;2.28;;
74656;SDS011;63185;45.642;13.764;2023-04-08T13:00:53;4.95;;;2.10;;
74656;SDS011;63185;45.642;13.764;2023-04-08T13:03:19;6.75;;;2.40;;
74656;SDS011;63185;45.642;13.764;2023-04-08T13:05:45;8.13;;;3.03;;
74656;SDS011;63185;45.642;13.764;2023-04-08T13:08:11;8.20;;;4.18;;
74656;SDS011;63185;45.642;13.764;2023-04-08T13:10:37;6.25;;;2.70;;
74656;SDS011;63185;45.642;13.764;2023-04-08T13:13:02;4.72;;;2.30;;
74656;SDS011;63185;45.642;13.764;2023-04-08T13:15:28;6.47;;;2.30;;
74656;SDS011;63185;45.642;13.764;2023-04-08T13:17:54;7.45;;;2.58;;
74656;SDS011;63185;45.642;13.764;2023-04-08T13:20:20;6.93;;;2.35;;
74656;SDS011;63185;45.642;13.764;2023-04-08T13:22:51;6.90;;;2.60;;
74656;SDS011;63185;45.642;13.764;2023-04-08T13:25:17;7.60;;;2.67;;
74656;SDS011;63185;45.642;13.764;2023-04-08T13:27:42;8.75;;;2.60;;
74656;SDS011;63185;45.642;13.764;2023-04-08T13:30:08;8.90;;;2.80;;
74656;SDS011;63185;45.642;13.764;2023-04-08T13:32:34;6.43;;;2.50;;
74656;SDS011;63185;45.642;13.764;2023-04-08T13:35:00;7.60;;;2.65;;
74656;SDS011;63185;45.642;13.764;2023-04-08T13:37:26;7.13;;;2.72;;
74656;SDS011;63185;45.642;13.764;2023-04-08T13:39:52;5.13;;;2.55;;
74656;SDS011;63185;45.642;13.764;2023-04-08T13:42:18;3.90;;;2.50;;
74656;SDS011;63185;45.642;13.764;2023-04-08T13:44:44;7.10;;;2.60;;
74656;SDS011;63185;45.642;13.764;2023-04-08T13:47:10;9.32;;;3.22;;
74656;SDS011;63185;45.642;13.764;2023-04-08T13:49:39;7.75;;;2.90;;
74656;SDS011;63185;45.642;13.764;2023-04-08T13:52:05;5.15;;;2.65;;
74656;SDS011;63185;45.642;13.764;2023-04-08T13:54:31;6.00;;;2.88;;
74656;SDS011;63185;45.642;13.764;2023-04-08T13:56:57;6.28;;;3.05;;
74656;SDS011;63185;45.642;13.764;2023-04-08T13:59:23;6.35;;;2.83;;
74656;SDS011;63185;45.642;13.764;2023-04-08T14:01:48;8.60;;;2.50;;
74656;SDS011;63185;45.642;13.764;2023-04-08T14:04:18;6.72;;;3.38;;
74656;SDS011;63185;45.642;13.764;2023-04-08T14:06:45;6.43;;;2.65;;
74656;SDS011;63185;45.642;13.764;2023-04-08T14:09:10;7.25;;;3.03;;
74656;SDS011;63185;45.642;13.764;2023-04-08T14:11:36;7.10;;;2.83;;
74656;SDS011;63185;45.642;13.764;2023-04-08T14:14:02;8.93;;;3.00;;
74656;SDS011;63185;45.642;13.764;2023-04-08T14:16:28;14.00;;;6.65;;
74656;SDS011;63185;45.642;13.764;2023-04-08T14:18:55;10.48;;;5.47;;
74656;SDS011;63185;45.642;13.764;2023-04-08T14:21:21;8.48;;;3.42;;
74656;SDS011;63185;45.642;13.764;2023-04-08T14:23:47;12.55;;;6.40;;
74656;SDS011;63185;45.642;13.764;2023-04-08T14:26:13;10.55;;;3.30;;
74656;SDS011;63185;45.642;13.764;2023-04-08T14:28:39;8.18;;;3.10;;
74656;SDS011;63185;45.642;13.764;2023-04-08T14:31:08;9.38;;;3.40;;
74656;SDS011;63185;45.642;13.764;2023-04-08T14:33:34;8.27;;;3.15;;
74656;SDS011;63185;45.642;13.764;2023-04-08T14:36:00;10.05;;;2.85;;
74656;SDS011;63185;45.642;13.764;2023-04-08T14:38:26;11.82;;;7.07;;
74656;SDS011;63185;45.642;13.764;2023-04-08T14:40:52;9.63;;;3.67;;
74656;SDS011;63185;45.642;13.764;2023-04-08T14:43:18;8.25;;;3.53;;
74656;SDS011;63185;45.642;13.764;2023-04-08T14:45:45;6.88;;;3.35;;
74656;SDS011;63185;45.642;13.764;2023-04-08T14:48:10;7.22;;;3.70;;
74656;SDS011;63185;45.642;13.764;2023-04-08T14:50:36;8.82;;;4.13;;